createdAt,value
2018-04-28T00:00:39.586Z,938.14
2018-04-28T00:01:39.686Z,938.14
2018-04-28T00:02:39.602Z,938.14
2018-04-28T00:03:39.624Z,938.10
2018-04-28T00:04:39.641Z,938.10
2018-04-28T00:05:39.648Z,938.12
2018-04-28T00:06:39.776Z,938.12
2018-04-28T00:07:39.697Z,938.11
2018-04-28T00:08:39.699Z,938.11
2018-04-28T00:09:39.746Z,938.14
2018-04-28T00:10:39.762Z,938.15
2018-04-28T00:11:39.854Z,938.13
2018-04-28T00:12:39.797Z,938.14
2018-04-28T00:13:39.800Z,938.10
2018-04-28T00:14:39.818Z,938.11
2018-04-28T00:15:39.847Z,938.17
2018-04-28T00:16:39.941Z,938.21
2018-04-28T00:17:39.875Z,938.23
2018-04-28T00:18:39.890Z,938.27
2018-04-28T00:19:39.880Z,938.29
2018-04-28T00:20:39.910Z,938.31
2018-04-28T00:21:40.023Z,938.28
2018-04-28T00:22:39.931Z,938.33
2018-04-28T00:23:40.011Z,938.29
2018-04-28T00:24:39.982Z,938.30
2018-04-28T00:25:39.977Z,938.28
2018-04-28T00:26:40.112Z,938.29
2018-04-28T00:27:40.038Z,938.28
2018-04-28T00:28:40.031Z,938.26
2018-04-28T00:29:40.072Z,938.27
2018-04-28T00:30:40.057Z,938.28
2018-04-28T00:31:40.205Z,938.30
2018-04-28T00:32:40.124Z,938.27
2018-04-28T00:33:40.122Z,938.28
2018-04-28T00:34:40.151Z,938.28
2018-04-28T00:35:40.170Z,938.28
2018-04-28T00:36:40.485Z,938.31
2018-04-28T00:37:40.177Z,938.26
2018-04-28T00:38:40.194Z,938.25
2018-04-28T00:39:40.233Z,938.27
2018-04-28T00:40:40.232Z,938.24
2018-04-28T00:41:40.345Z,938.24
2018-04-28T00:42:40.281Z,938.28
2018-04-28T00:43:40.300Z,938.27
2018-04-28T00:44:40.289Z,938.26
2018-04-28T00:45:40.317Z,938.27
2018-04-28T00:46:40.435Z,938.28
2018-04-28T00:47:40.381Z,938.29
2018-04-28T00:48:40.370Z,938.34
2018-04-28T00:49:40.375Z,938.33
2018-04-28T00:50:40.413Z,938.33
2018-04-28T00:51:40.532Z,938.36
2018-04-28T00:52:40.431Z,938.36
2018-04-28T00:53:40.467Z,938.33
2018-04-28T00:54:40.463Z,938.32
2018-04-28T00:55:40.467Z,938.36
2018-04-28T00:56:40.583Z,938.37
2018-04-28T00:57:40.500Z,938.35
2018-04-28T00:58:40.520Z,938.32
2018-04-28T00:59:40.563Z,938.34
2018-04-28T01:00:40.549Z,938.34
2018-04-28T01:01:40.671Z,938.34
2018-04-28T01:02:40.606Z,938.35
2018-04-28T01:03:40.625Z,938.30
2018-04-28T01:04:40.613Z,938.34
2018-04-28T01:05:40.631Z,938.34
2018-04-28T01:06:40.759Z,938.32
2018-04-28T01:07:40.661Z,938.33
2018-04-28T01:08:40.693Z,938.33
2018-04-28T01:09:40.692Z,938.38
2018-04-28T01:10:40.720Z,938.38
2018-04-28T01:11:40.855Z,938.38
2018-04-28T01:12:40.745Z,938.39
2018-04-28T01:13:40.765Z,938.38
2018-04-28T01:14:40.803Z,938.39
2018-04-28T01:15:40.792Z,938.40
2018-04-28T01:16:40.931Z,938.38
2018-04-28T01:17:40.850Z,938.40
2018-04-28T01:18:40.840Z,938.41
2018-04-28T01:19:40.883Z,938.38
2018-04-28T01:20:40.900Z,938.38
2018-04-28T01:21:40.994Z,938.37
2018-04-28T01:22:40.931Z,938.39
2018-04-28T01:23:40.918Z,938.41
2018-04-28T01:24:40.948Z,938.38
2018-04-28T01:25:40.996Z,938.43
2018-04-28T01:26:40.977Z,938.42
2018-04-28T01:27:41.109Z,938.44
2018-04-28T01:28:41.032Z,938.45
2018-04-28T01:29:41.011Z,938.47
2018-04-28T01:30:41.055Z,938.45
2018-04-28T01:31:41.077Z,938.47
2018-04-28T01:32:41.192Z,938.47
2018-04-28T01:33:41.094Z,938.48
2018-04-28T01:34:41.107Z,938.51
2018-04-28T01:35:41.144Z,938.51
2018-04-28T01:36:41.127Z,938.50
2018-04-28T01:37:41.270Z,938.52
2018-04-28T01:38:41.161Z,938.53
2018-04-28T01:39:41.189Z,938.52
2018-04-28T01:40:41.196Z,938.52
2018-04-28T01:41:41.211Z,938.50
2018-04-28T01:42:41.353Z,938.50
2018-04-28T01:43:41.248Z,938.50
2018-04-28T01:44:41.284Z,938.46
2018-04-28T01:45:41.267Z,938.49
2018-04-28T01:46:41.313Z,938.46
2018-04-28T01:47:41.429Z,938.42
2018-04-28T01:48:41.342Z,938.40
2018-04-28T01:49:41.348Z,938.40
2018-04-28T01:50:41.351Z,938.39
2018-04-28T01:51:41.369Z,938.40
2018-04-28T01:52:41.488Z,938.40
2018-04-28T01:53:41.401Z,938.42
2018-04-28T01:54:41.432Z,938.38
2018-04-28T01:55:41.446Z,938.38
2018-04-28T01:56:41.449Z,938.39
2018-04-28T01:57:41.596Z,938.37
2018-04-28T01:58:41.488Z,938.33
2018-04-28T01:59:41.498Z,938.34
2018-04-28T02:00:41.519Z,938.31
2018-04-28T02:01:41.557Z,938.31
2018-04-28T02:02:41.671Z,938.29
2018-04-28T02:03:41.558Z,938.28
2018-04-28T02:04:41.580Z,938.28
2018-04-28T02:05:41.591Z,938.24
2018-04-28T02:06:41.627Z,938.26
2018-04-28T02:07:41.723Z,938.23
2018-04-28T02:08:41.668Z,938.22
2018-04-28T02:09:41.680Z,938.23
2018-04-28T02:10:41.684Z,938.25
2018-04-28T02:11:41.717Z,938.24
2018-04-28T02:12:41.814Z,938.21
2018-04-28T02:13:41.728Z,938.20
2018-04-28T02:14:41.737Z,938.20
2018-04-28T02:15:41.753Z,938.25
2018-04-28T02:16:41.766Z,938.25
2018-04-28T02:17:41.894Z,938.27
2018-04-28T02:18:41.812Z,938.26
2018-04-28T02:19:41.843Z,938.29
2018-04-28T02:20:41.837Z,938.27
2018-04-28T02:21:41.849Z,938.24
2018-04-28T02:22:41.989Z,938.21
2018-04-28T02:23:41.906Z,938.21
2018-04-28T02:24:41.893Z,938.19
2018-04-28T02:25:41.912Z,938.19
2018-04-28T02:26:41.950Z,938.20
2018-04-28T02:27:42.073Z,938.19
2018-04-28T02:28:41.963Z,938.21
2018-04-28T02:29:41.996Z,938.20
2018-04-28T02:30:41.987Z,938.17
2018-04-28T02:31:42.029Z,938.19
2018-04-28T02:32:42.206Z,938.20
2018-04-28T02:33:42.064Z,938.20
2018-04-28T02:34:42.063Z,938.20
2018-04-28T02:35:42.071Z,938.20
2018-04-28T02:36:42.117Z,938.19
2018-04-28T02:37:42.198Z,938.17
2018-04-28T02:38:42.140Z,938.20
2018-04-28T02:39:42.130Z,938.16
2018-04-28T02:40:42.146Z,938.19
2018-04-28T02:41:42.192Z,938.15
2018-04-28T02:42:42.303Z,938.19
2018-04-28T02:43:42.223Z,938.17
2018-04-28T02:44:42.243Z,938.22
2018-04-28T02:45:42.253Z,938.21
2018-04-28T02:46:42.269Z,938.22
2018-04-28T02:47:42.381Z,938.18
2018-04-28T02:48:42.271Z,938.19
2018-04-28T02:49:42.287Z,938.19
2018-04-28T02:50:42.336Z,938.17
2018-04-28T02:51:42.345Z,938.18
2018-04-28T02:52:42.466Z,938.11
2018-04-28T02:53:42.383Z,938.10
2018-04-28T02:54:42.366Z,938.08
2018-04-28T02:55:42.411Z,938.07
2018-04-28T02:56:42.427Z,938.06
2018-04-28T02:57:42.596Z,938.01
2018-04-28T02:58:42.445Z,937.99
2018-04-28T02:59:42.448Z,938.02
2018-04-28T03:00:42.462Z,938.01
2018-04-28T03:01:42.473Z,938.01
2018-04-28T03:02:42.656Z,938.00
2018-04-28T03:03:42.539Z,937.98
2018-04-28T03:04:42.523Z,937.96
2018-04-28T03:05:42.537Z,938.00
2018-04-28T03:06:42.565Z,937.95
2018-04-28T03:07:42.669Z,937.96
2018-04-28T03:08:42.614Z,937.98
2018-04-28T03:09:42.629Z,937.97
2018-04-28T03:10:42.643Z,937.99
2018-04-28T03:11:42.635Z,938.01
2018-04-28T03:12:42.752Z,938.04
2018-04-28T03:13:42.691Z,938.05
2018-04-28T03:14:42.707Z,938.03
2018-04-28T03:15:42.722Z,938.02
2018-04-28T03:16:42.736Z,938.03
2018-04-28T03:17:42.844Z,938.06
2018-04-28T03:18:42.767Z,938.02
2018-04-28T03:19:42.759Z,938.05
2018-04-28T03:20:42.773Z,938.07
2018-04-28T03:21:42.798Z,938.09
2018-04-28T03:22:42.903Z,938.09
2018-04-28T03:23:42.845Z,938.11
2018-04-28T03:24:42.841Z,938.10
2018-04-28T03:25:42.856Z,938.10
2018-04-28T03:26:42.893Z,938.09
2018-04-28T03:27:42.984Z,938.08
2018-04-28T03:28:42.908Z,938.05
2018-04-28T03:29:42.913Z,938.03
2018-04-28T03:30:42.959Z,938.04
2018-04-28T03:31:42.944Z,938.03
2018-04-28T03:32:42.992Z,938.03
2018-04-28T03:33:43.072Z,937.98
2018-04-28T03:34:42.994Z,938.00
2018-04-28T03:35:43.009Z,937.99
2018-04-28T03:36:43.021Z,937.98
2018-04-28T03:37:43.066Z,937.98
2018-04-28T03:38:43.185Z,938.00
2018-04-28T03:39:43.072Z,937.98
2018-04-28T03:40:43.113Z,937.97
2018-04-28T03:41:43.124Z,937.97
2018-04-28T03:42:43.144Z,937.95
2018-04-28T03:43:43.258Z,937.97
2018-04-28T03:44:43.172Z,937.92
2018-04-28T03:45:43.199Z,937.93
2018-04-28T03:46:43.180Z,937.89
2018-04-28T03:47:43.220Z,937.88
2018-04-28T03:48:43.309Z,937.87
2018-04-28T03:49:43.250Z,937.88
2018-04-28T03:50:43.241Z,937.84
2018-04-28T03:51:43.256Z,937.81
2018-04-28T03:52:43.275Z,937.85
2018-04-28T03:53:43.389Z,937.81
2018-04-28T03:54:43.304Z,937.79
2018-04-28T03:55:43.317Z,937.76
2018-04-28T03:56:43.332Z,937.75
2018-04-28T03:57:43.379Z,937.70
2018-04-28T03:58:43.464Z,937.70
2018-04-28T03:59:43.384Z,937.69
2018-04-28T04:00:43.400Z,937.65
2018-04-28T04:01:43.424Z,937.68
2018-04-28T04:02:43.425Z,937.68
2018-04-28T04:03:43.541Z,937.69
2018-04-28T04:04:43.495Z,937.64
2018-04-28T04:05:43.477Z,937.65
2018-04-28T04:06:43.500Z,937.62
2018-04-28T04:07:43.508Z,937.60
2018-04-28T04:08:43.631Z,937.60
2018-04-28T04:09:43.537Z,937.56
2018-04-28T04:10:43.576Z,937.56
2018-04-28T04:11:43.595Z,937.55
2018-04-28T04:12:43.598Z,937.55
2018-04-28T04:13:43.698Z,937.56
2018-04-28T04:14:43.686Z,937.56
2018-04-28T04:15:43.636Z,937.54
2018-04-28T04:16:43.648Z,937.54
2018-04-28T04:17:43.660Z,937.55
2018-04-28T04:18:43.792Z,937.54
2018-04-28T04:19:43.718Z,937.56
2018-04-28T04:20:43.735Z,937.58
2018-04-28T04:21:43.725Z,937.55
2018-04-28T04:22:43.744Z,937.57
2018-04-28T04:23:43.855Z,937.55
2018-04-28T04:24:43.784Z,937.56
2018-04-28T04:25:43.781Z,937.55
2018-04-28T04:26:43.802Z,937.52
2018-04-28T04:27:43.822Z,937.52
2018-04-28T04:28:44.006Z,937.53
2018-04-28T04:29:43.874Z,937.59
2018-04-28T04:30:43.886Z,937.57
2018-04-28T04:31:43.902Z,937.55
2018-04-28T04:32:43.890Z,937.57
2018-04-28T04:33:43.901Z,937.55
2018-04-28T04:34:44.047Z,937.58
2018-04-28T04:35:43.967Z,937.54
2018-04-28T04:36:43.970Z,937.56
2018-04-28T04:37:44.060Z,937.53
2018-04-28T04:38:44.014Z,937.54
2018-04-28T04:39:44.113Z,937.52
2018-04-28T04:40:44.041Z,937.56
2018-04-28T04:41:44.059Z,937.55
2018-04-28T04:42:44.049Z,937.51
2018-04-28T04:43:44.088Z,937.50
2018-04-28T04:44:44.185Z,937.52
2018-04-28T04:45:44.104Z,937.48
2018-04-28T04:46:44.139Z,937.46
2018-04-28T04:47:44.134Z,937.44
2018-04-28T04:48:44.141Z,937.44
2018-04-28T04:49:44.256Z,937.45
2018-04-28T04:50:44.167Z,937.44
2018-04-28T04:51:44.185Z,937.41
2018-04-28T04:52:44.228Z,937.40
2018-04-28T04:53:44.218Z,937.41
2018-04-28T04:54:44.340Z,937.42
2018-04-28T04:55:44.280Z,937.38
2018-04-28T04:56:44.263Z,937.38
2018-04-28T04:57:44.278Z,937.39
2018-04-28T04:58:44.294Z,937.38
2018-04-28T04:59:44.410Z,937.40
2018-04-28T05:00:44.328Z,937.38
2018-04-28T05:01:44.345Z,937.39
2018-04-28T05:02:44.367Z,937.40
2018-04-28T05:03:44.410Z,937.40
2018-04-28T05:04:44.488Z,937.42
2018-04-28T05:05:44.428Z,937.39
2018-04-28T05:06:44.442Z,937.40
2018-04-28T05:07:44.458Z,937.38
2018-04-28T05:08:44.457Z,937.41
2018-04-28T05:09:44.563Z,937.38
2018-04-28T05:10:44.486Z,937.42
2018-04-28T05:11:44.523Z,937.40
2018-04-28T05:12:44.513Z,937.43
2018-04-28T05:13:44.549Z,937.46
2018-04-28T05:14:44.670Z,937.43
2018-04-28T05:15:44.559Z,937.43
2018-04-28T05:16:44.574Z,937.41
2018-04-28T05:17:44.589Z,937.42
2018-04-28T05:18:44.627Z,937.45
2018-04-28T05:19:44.746Z,937.44
2018-04-28T05:20:44.638Z,937.45
2018-04-28T05:21:44.675Z,937.44
2018-04-28T05:22:44.680Z,937.44
2018-04-28T05:23:44.707Z,937.43
2018-04-28T05:24:44.845Z,937.45
2018-04-28T05:25:44.718Z,937.45
2018-04-28T05:26:44.753Z,937.46
2018-04-28T05:27:44.797Z,937.46
2018-04-28T05:28:44.780Z,937.46
2018-04-28T05:29:44.886Z,937.43
2018-04-28T05:30:44.783Z,937.41
2018-04-28T05:31:44.829Z,937.42
2018-04-28T05:32:44.816Z,937.43
2018-04-28T05:33:44.910Z,937.43
2018-04-28T05:34:44.949Z,937.41
2018-04-28T05:35:44.870Z,937.44
2018-04-28T05:36:44.906Z,937.41
2018-04-28T05:37:44.896Z,937.41
2018-04-28T05:38:44.935Z,937.37
2018-04-28T05:39:44.923Z,937.43
2018-04-28T05:40:45.091Z,937.45
2018-04-28T05:41:44.961Z,937.44
2018-04-28T05:42:44.984Z,937.44
2018-04-28T05:43:44.980Z,937.47
2018-04-28T05:44:45.032Z,937.49
2018-04-28T05:45:45.121Z,937.51
2018-04-28T05:46:45.033Z,937.49
2018-04-28T05:47:45.061Z,937.49
2018-04-28T05:48:45.089Z,937.48
2018-04-28T05:49:45.099Z,937.53
2018-04-28T05:50:45.218Z,937.54
2018-04-28T05:51:45.122Z,937.55
2018-04-28T05:52:45.148Z,937.57
2018-04-28T05:53:45.137Z,937.57
2018-04-28T05:54:45.159Z,937.59
2018-04-28T05:55:45.347Z,937.59
2018-04-28T05:56:45.209Z,937.58
2018-04-28T05:57:45.199Z,937.55
2018-04-28T05:58:45.219Z,937.54
2018-04-28T05:59:45.234Z,937.55
2018-04-28T06:00:45.417Z,937.54
2018-04-28T06:01:45.262Z,937.55
2018-04-28T06:02:45.297Z,937.54
2018-04-28T06:03:45.313Z,937.49
2018-04-28T06:04:45.333Z,937.47
2018-04-28T06:05:45.475Z,937.47
2018-04-28T06:06:45.336Z,937.39
2018-04-28T06:07:45.351Z,937.42
2018-04-28T06:08:45.367Z,937.37
2018-04-28T06:09:45.394Z,937.42
2018-04-28T06:10:45.503Z,937.37
2018-04-28T06:11:45.439Z,937.40
2018-04-28T06:12:45.422Z,937.38
2018-04-28T06:13:45.442Z,937.36
2018-04-28T06:14:45.453Z,937.38
2018-04-28T06:15:45.597Z,937.34
2018-04-28T06:16:45.510Z,937.32
2018-04-28T06:17:45.500Z,937.30
2018-04-28T06:18:45.518Z,937.32
2018-04-28T06:19:45.560Z,937.30
2018-04-28T06:20:45.644Z,937.32
2018-04-28T06:21:45.560Z,937.29
2018-04-28T06:22:45.605Z,937.32
2018-04-28T06:23:45.593Z,937.33
2018-04-28T06:24:45.605Z,937.29
2018-04-28T06:25:45.718Z,937.35
2018-04-28T06:26:45.644Z,937.28
2018-04-28T06:27:45.654Z,937.30
2018-04-28T06:28:45.696Z,937.30
2018-04-28T06:29:45.707Z,937.30
2018-04-28T06:30:45.810Z,937.33
2018-04-28T06:31:45.728Z,937.29
2018-04-28T06:32:45.757Z,937.28
2018-04-28T06:33:45.744Z,937.31
2018-04-28T06:34:45.770Z,937.31
2018-04-28T06:35:45.924Z,937.31
2018-04-28T06:36:45.792Z,937.34
2018-04-28T06:37:45.803Z,937.32
2018-04-28T06:38:45.818Z,937.31
2018-04-28T06:39:45.864Z,937.31
2018-04-28T06:40:45.976Z,937.31
2018-04-28T06:41:45.869Z,937.32
2018-04-28T06:42:45.890Z,937.29
2018-04-28T06:43:45.911Z,937.34
2018-04-28T06:44:45.914Z,937.32
2018-04-28T06:45:46.110Z,937.35
2018-04-28T06:46:45.967Z,937.35
2018-04-28T06:47:45.957Z,937.36
2018-04-28T06:48:45.975Z,937.31
2018-04-28T06:49:45.991Z,937.35
2018-04-28T06:50:46.133Z,937.33
2018-04-28T06:51:46.031Z,937.36
2018-04-28T06:52:46.052Z,937.35
2018-04-28T06:53:46.077Z,937.39
2018-04-28T06:54:46.062Z,937.38
2018-04-28T06:55:46.180Z,937.39
2018-04-28T06:56:46.120Z,937.39
2018-04-28T06:57:46.139Z,937.38
2018-04-28T06:58:46.122Z,937.40
2018-04-28T06:59:46.173Z,937.38
2018-04-28T07:00:46.265Z,937.37
2018-04-28T07:01:46.202Z,937.34
2018-04-28T07:02:46.216Z,937.35
2018-04-28T07:03:46.213Z,937.33
2018-04-28T07:04:46.227Z,937.33
2018-04-28T07:05:46.335Z,937.30
2018-04-28T07:06:46.251Z,937.31
2018-04-28T07:07:46.269Z,937.31
2018-04-28T07:08:46.280Z,937.30
2018-04-28T07:09:46.306Z,937.29
2018-04-28T07:10:46.468Z,937.29
2018-04-28T07:11:46.358Z,937.29
2018-04-28T07:12:46.347Z,937.24
2018-04-28T07:13:46.382Z,937.25
2018-04-28T07:14:46.380Z,937.27
2018-04-28T07:15:46.498Z,937.26
2018-04-28T07:16:46.411Z,937.19
2018-04-28T07:17:46.449Z,937.22
2018-04-28T07:18:46.438Z,937.23
2018-04-28T07:19:46.453Z,937.21
2018-04-28T07:20:46.563Z,937.20
2018-04-28T07:21:46.488Z,937.22
2018-04-28T07:22:46.498Z,937.19
2018-04-28T07:23:46.538Z,937.19
2018-04-28T07:24:46.542Z,937.17
2018-04-28T07:25:46.670Z,937.17
2018-04-28T07:26:46.559Z,937.19
2018-04-28T07:27:46.605Z,937.22
2018-04-28T07:28:46.595Z,937.20
2018-04-28T07:29:46.606Z,937.23
2018-04-28T07:30:46.725Z,937.26
2018-04-28T07:31:46.650Z,937.28
2018-04-28T07:32:46.674Z,937.32
2018-04-28T07:33:46.676Z,937.27
2018-04-28T07:34:46.685Z,937.27
2018-04-28T07:35:46.789Z,937.29
2018-04-28T07:36:46.713Z,937.34
2018-04-28T07:37:46.749Z,937.29
2018-04-28T07:38:46.751Z,937.31
2018-04-28T07:39:46.789Z,937.28
2018-04-28T07:40:46.889Z,937.27
2018-04-28T07:41:46.814Z,937.29
2018-04-28T07:42:46.820Z,937.32
2018-04-28T07:43:46.844Z,937.34
2018-04-28T07:44:46.835Z,937.33
2018-04-28T07:45:47.024Z,937.38
2018-04-28T07:46:46.867Z,937.36
2018-04-28T07:47:46.892Z,937.35
2018-04-28T07:48:46.894Z,937.37
2018-04-28T07:49:46.938Z,937.33
2018-04-28T07:50:47.050Z,937.35
2018-04-28T07:51:46.945Z,937.37
2018-04-28T07:52:46.956Z,937.36
2018-04-28T07:53:46.970Z,937.33
2018-04-28T07:54:46.989Z,937.36
2018-04-28T07:55:47.104Z,937.38
2018-04-28T07:56:47.047Z,937.35
2018-04-28T07:57:47.035Z,937.41
2018-04-28T07:58:47.041Z,937.40
2018-04-28T07:59:47.066Z,937.37
2018-04-28T08:00:47.189Z,937.42
2018-04-28T08:01:47.101Z,937.38
2018-04-28T08:02:47.109Z,937.41
2018-04-28T08:03:47.127Z,937.39
2018-04-28T08:04:47.155Z,937.42
2018-04-28T08:05:47.254Z,937.38
2018-04-28T08:06:47.203Z,937.42
2018-04-28T08:07:47.188Z,937.44
2018-04-28T08:08:47.229Z,937.42
2018-04-28T08:09:47.235Z,937.41
2018-04-28T08:10:47.333Z,937.44
2018-04-28T08:11:47.280Z,937.43
2018-04-28T08:12:47.291Z,937.48
2018-04-28T08:13:47.302Z,937.47
2018-04-28T08:14:47.294Z,937.52
2018-04-28T08:15:47.430Z,937.52
2018-04-28T08:16:47.329Z,937.50
2018-04-28T08:17:47.338Z,937.52
2018-04-28T08:18:47.357Z,937.51
2018-04-28T08:19:47.394Z,937.53
2018-04-28T08:20:47.597Z,937.53
2018-04-28T08:21:47.430Z,937.57
2018-04-28T08:22:47.413Z,937.56
2018-04-28T08:23:47.439Z,937.60
2018-04-28T08:24:47.448Z,937.58
2018-04-28T08:25:47.569Z,937.60
2018-04-28T08:26:47.492Z,937.59
2018-04-28T08:27:47.516Z,937.59
2018-04-28T08:28:47.510Z,937.57
2018-04-28T08:29:47.540Z,937.58
2018-04-28T08:30:47.652Z,937.58
2018-04-28T08:31:47.555Z,937.57
2018-04-28T08:32:47.569Z,937.56
2018-04-28T08:33:47.582Z,937.53
2018-04-28T08:34:47.627Z,937.55
2018-04-28T08:35:47.713Z,937.57
2018-04-28T08:36:47.692Z,937.57
2018-04-28T08:37:47.652Z,937.57
2018-04-28T08:38:47.689Z,937.58
2018-04-28T08:39:47.704Z,937.55
2018-04-28T08:40:47.787Z,937.62
2018-04-28T08:41:47.707Z,937.57
2018-04-28T08:42:47.734Z,937.61
2018-04-28T08:43:47.764Z,937.59
2018-04-28T08:44:47.757Z,937.59
2018-04-28T08:45:47.868Z,937.61
2018-04-28T08:46:47.780Z,937.61
2018-04-28T08:47:47.798Z,937.66
2018-04-28T08:48:47.836Z,937.66
2018-04-28T08:49:47.833Z,937.69
2018-04-28T08:50:47.845Z,937.71
2018-04-28T08:51:47.961Z,937.72
2018-04-28T08:52:47.888Z,937.68
2018-04-28T08:53:47.902Z,937.78
2018-04-28T08:54:47.906Z,937.66
2018-04-28T08:55:47.927Z,937.71
2018-04-28T08:56:48.040Z,937.68
2018-04-28T08:57:47.959Z,937.74
2018-04-28T08:58:47.992Z,937.75
2018-04-28T08:59:47.985Z,937.77
2018-04-28T09:00:48.028Z,937.76
2018-04-28T09:01:48.115Z,937.76
2018-04-28T09:02:48.057Z,937.76
2018-04-28T09:03:48.113Z,937.76
2018-04-28T09:04:48.059Z,937.73
2018-04-28T09:05:48.100Z,937.74
2018-04-28T09:06:48.249Z,937.73
2018-04-28T09:07:48.109Z,937.75
2018-04-28T09:08:48.138Z,937.79
2018-04-28T09:09:48.162Z,937.81
2018-04-28T09:10:48.152Z,937.80
2018-04-28T09:11:48.269Z,937.83
2018-04-28T09:12:48.208Z,937.86
2018-04-28T09:13:48.201Z,937.88
2018-04-28T09:14:48.229Z,937.87
2018-04-28T09:15:48.254Z,937.90
2018-04-28T09:16:48.345Z,937.91
2018-04-28T09:17:48.254Z,937.92
2018-04-28T09:18:48.304Z,937.89
2018-04-28T09:19:48.302Z,937.97
2018-04-28T09:20:48.345Z,937.96
2018-04-28T09:21:48.445Z,937.98
2018-04-28T09:22:48.339Z,937.98
2018-04-28T09:23:48.351Z,937.99
2018-04-28T09:24:48.377Z,938.03
2018-04-28T09:25:48.380Z,938.05
2018-04-28T09:26:48.525Z,938.00
2018-04-28T09:27:48.441Z,938.05
2018-04-28T09:28:48.431Z,938.05
2018-04-28T09:29:48.445Z,938.07
2018-04-28T09:30:48.460Z,938.05
2018-04-28T09:31:48.578Z,938.09
2018-04-28T09:32:48.520Z,938.09
2018-04-28T09:33:48.536Z,938.08
2018-04-28T09:34:48.555Z,938.11
2018-04-28T09:35:48.540Z,938.14
2018-04-28T09:36:48.682Z,938.09
2018-04-28T09:37:48.597Z,938.15
2018-04-28T09:38:48.587Z,938.08
2018-04-28T09:39:48.608Z,938.11
2018-04-28T09:40:48.642Z,938.13
2018-04-28T09:41:48.733Z,938.14
2018-04-28T09:42:48.656Z,938.12
2018-04-28T09:43:48.663Z,938.17
2018-04-28T09:44:48.707Z,938.21
2018-04-28T09:45:48.722Z,938.15
2018-04-28T09:46:48.813Z,938.14
2018-04-28T09:47:48.753Z,938.21
2018-04-28T09:48:48.769Z,938.25
2018-04-28T09:49:48.754Z,938.30
2018-04-28T09:50:48.797Z,938.29
2018-04-28T09:51:48.887Z,938.36
2018-04-28T09:52:48.803Z,938.40
2018-04-28T09:53:48.872Z,938.38
2018-04-28T09:54:48.867Z,938.40
2018-04-28T09:55:48.862Z,938.44
2018-04-28T09:56:48.968Z,938.36
2018-04-28T09:57:48.908Z,938.41
2018-04-28T09:58:48.921Z,938.42
2018-04-28T09:59:48.911Z,938.45
2018-04-28T10:00:48.952Z,938.46
2018-04-28T10:01:49.041Z,938.47
2018-04-28T10:02:48.988Z,938.51
2018-04-28T10:03:48.974Z,938.51
2018-04-28T10:04:49.018Z,938.55
2018-04-28T10:05:49.068Z,938.57
2018-04-28T10:06:49.132Z,938.59
2018-04-28T10:07:49.039Z,938.59
2018-04-28T10:08:49.052Z,938.64
2018-04-28T10:09:49.084Z,938.62
2018-04-28T10:10:49.084Z,938.64
2018-04-28T10:11:49.250Z,938.70
2018-04-28T10:12:49.197Z,938.72
2018-04-28T10:13:49.144Z,938.75
2018-04-28T10:14:49.147Z,938.75
2018-04-28T10:15:49.166Z,938.75
2018-04-28T10:16:49.291Z,938.78
2018-04-28T10:17:49.196Z,938.75
2018-04-28T10:18:49.221Z,938.73
2018-04-28T10:19:49.226Z,938.79
2018-04-28T10:20:49.244Z,938.77
2018-04-28T10:21:49.387Z,938.76
2018-04-28T10:22:49.274Z,938.77
2018-04-28T10:23:49.291Z,938.78
2018-04-28T10:24:49.333Z,938.80
2018-04-28T10:25:49.318Z,938.79
2018-04-28T10:26:49.432Z,938.80
2018-04-28T10:27:49.379Z,938.83
2018-04-28T10:28:49.370Z,938.83
2018-04-28T10:29:49.408Z,938.82
2018-04-28T10:30:49.437Z,938.79
2018-04-28T10:31:49.541Z,938.84
2018-04-28T10:32:49.430Z,938.84
2018-04-28T10:33:49.449Z,938.87
2018-04-28T10:34:49.485Z,938.90
2018-04-28T10:35:49.508Z,938.88
2018-04-28T10:36:49.605Z,938.88
2018-04-28T10:37:49.522Z,938.88
2018-04-28T10:38:49.523Z,938.92
2018-04-28T10:39:49.570Z,938.91
2018-04-28T10:40:49.590Z,938.93
2018-04-28T10:41:49.723Z,938.88
2018-04-28T10:42:49.617Z,938.91
2018-04-28T10:43:49.611Z,938.92
2018-04-28T10:44:49.635Z,938.92
2018-04-28T10:45:49.639Z,938.92
2018-04-28T10:46:49.777Z,938.93
2018-04-28T10:47:49.679Z,938.93
2018-04-28T10:48:49.682Z,938.91
2018-04-28T10:49:49.709Z,938.89
2018-04-28T10:50:49.748Z,938.93
2018-04-28T10:51:49.833Z,938.93
2018-04-28T10:52:49.758Z,938.93
2018-04-28T10:53:49.881Z,938.91
2018-04-28T10:54:49.806Z,938.93
2018-04-28T10:55:49.828Z,938.95
2018-04-28T10:56:49.843Z,938.97
2018-04-28T10:57:49.995Z,939.00
2018-04-28T10:58:49.856Z,939.00
2018-04-28T10:59:49.880Z,939.04
2018-04-28T11:00:49.890Z,938.98
2018-04-28T11:01:49.895Z,939.00
2018-04-28T11:02:50.008Z,939.03
2018-04-28T11:03:49.935Z,939.05
2018-04-28T11:04:49.944Z,939.05
2018-04-28T11:05:49.968Z,939.04
2018-04-28T11:06:49.974Z,939.06
2018-04-28T11:07:50.115Z,939.03
2018-04-28T11:08:50.009Z,939.00
2018-04-28T11:09:50.022Z,939.03
2018-04-28T11:10:50.042Z,939.06
2018-04-28T11:11:50.089Z,939.04
2018-04-28T11:12:50.179Z,939.01
2018-04-28T11:13:50.117Z,939.03
2018-04-28T11:14:50.133Z,939.02
2018-04-28T11:15:50.135Z,939.05
2018-04-28T11:16:50.166Z,939.03
2018-04-28T11:17:50.264Z,939.04
2018-04-28T11:18:50.177Z,939.04
2018-04-28T11:19:50.246Z,939.05
2018-04-28T11:20:50.197Z,939.07
2018-04-28T11:21:50.227Z,939.06
2018-04-28T11:22:50.334Z,939.07
2018-04-28T11:23:50.265Z,939.08
2018-04-28T11:24:50.273Z,939.05
2018-04-28T11:25:50.335Z,939.05
2018-04-28T11:26:50.332Z,939.10
2018-04-28T11:27:50.500Z,939.10
2018-04-28T11:28:50.338Z,939.12
2018-04-28T11:29:50.388Z,939.12
2018-04-28T11:30:50.387Z,939.12
2018-04-28T11:31:50.404Z,939.11
2018-04-28T11:32:50.610Z,939.08
2018-04-28T11:33:50.426Z,939.10
2018-04-28T11:34:50.469Z,939.14
2018-04-28T11:35:50.489Z,939.16
2018-04-28T11:36:50.497Z,939.15
2018-04-28T11:37:50.596Z,939.17
2018-04-28T11:38:50.527Z,939.16
2018-04-28T11:39:50.555Z,939.17
2018-04-28T11:40:50.559Z,939.20
2018-04-28T11:41:50.572Z,939.22
2018-04-28T11:42:50.683Z,939.19
2018-04-28T11:43:50.605Z,939.23
2018-04-28T11:44:50.646Z,939.26
2018-04-28T11:45:50.636Z,939.23
2018-04-28T11:46:50.657Z,939.28
2018-04-28T11:47:50.780Z,939.26
2018-04-28T11:48:50.697Z,939.28
2018-04-28T11:49:50.715Z,939.33
2018-04-28T11:50:50.726Z,939.29
2018-04-28T11:51:50.745Z,939.37
2018-04-28T11:52:50.859Z,939.36
2018-04-28T11:53:50.788Z,939.35
2018-04-28T11:54:50.829Z,939.37
2018-04-28T11:55:50.820Z,939.38
2018-04-28T11:56:50.871Z,939.37
2018-04-28T11:57:50.954Z,939.41
2018-04-28T11:58:50.876Z,939.43
2018-04-28T11:59:50.922Z,939.45
2018-04-28T12:00:50.926Z,939.43
2018-04-28T12:01:50.930Z,939.46
2018-04-28T12:02:51.064Z,939.44
2018-04-28T12:03:50.978Z,939.45
2018-04-28T12:04:50.985Z,939.49
2018-04-28T12:05:51.082Z,939.47
2018-04-28T12:06:51.052Z,939.48
2018-04-28T12:07:51.154Z,939.50
2018-04-28T12:08:51.064Z,939.47
2018-04-28T12:09:51.107Z,939.51
2018-04-28T12:10:51.113Z,939.52
2018-04-28T12:11:51.145Z,939.55
2018-04-28T12:12:51.236Z,939.54
2018-04-28T12:13:51.173Z,939.57
2018-04-28T12:14:51.174Z,939.55
2018-04-28T12:15:51.221Z,939.62
2018-04-28T12:16:51.219Z,939.55
2018-04-28T12:17:51.333Z,939.57
2018-04-28T12:18:51.253Z,939.62
2018-04-28T12:19:51.269Z,939.61
2018-04-28T12:20:51.291Z,939.53
2018-04-28T12:21:51.308Z,939.56
2018-04-28T12:22:51.450Z,939.60
2018-04-28T12:23:51.366Z,939.62
2018-04-28T12:24:51.363Z,939.63
2018-04-28T12:25:51.417Z,939.64
2018-04-28T12:26:51.436Z,939.63
2018-04-28T12:27:51.576Z,939.64
2018-04-28T12:28:51.471Z,939.63